Time;durP1;ratioP1;P1;durP2;ratioP2;P2;SDS_P1;SDS_P2;PMS_P1;PMS_P2;Temp;Humidity;BMP_temperature;BMP_pressure;BME280_temperature;BME280_humidity;BME280_pressure;Samples;Min_cycle;Max_cycle;Signal;HPM_P1;HPM_P2
2022/10/28 00:03:43;;;;;;;;;;;19.40;53.80;;;;;;8366657;28;19982;-43
2022/10/28 00:07:44;;;;;;;;;;;19.40;53.80;;;;;;8367221;28;19917;-43
2022/10/28 00:11:44;;;;;;;;;;;19.40;53.90;;;;;;8366861;28;19921;-43
2022/10/28 00:15:45;;;;;;;;;;;19.40;53.80;;;;;;8366135;28;19924;-45
2022/10/28 00:19:45;;;;;;;;;;;19.40;53.90;;;;;;8366823;28;20328;-44
2022/10/28 00:23:46;;;;;;;;;;;19.40;53.80;;;;;;8366616;28;19919;-43
2022/10/28 00:27:46;;;;;;;;;;;19.40;53.80;;;;;;8365882;28;19925;-43
2022/10/28 00:31:47;;;;;;;;;;;19.40;53.80;;;;;;8366204;28;20298;-46
2022/10/28 00:35:47;;;;;;;;;;;19.40;53.90;;;;;;8353117;28;20448;-43
2022/10/28 00:39:48;;;;;;;;;;;19.40;53.80;;;;;;8332581;28;19917;-43
2022/10/28 00:43:55;;;;;;;;;;;19.40;53.90;;;;;;8332904;28;19967;-43
2022/10/28 00:47:57;;;;;;;;;;;19.40;53.90;;;;;;8332681;28;19963;-44
2022/10/28 00:52:02;;;;;;;;;;;19.40;53.90;;;;;;8332530;28;19917;-43
2022/10/28 00:56:03;;;;;;;;;;;19.40;53.90;;;;;;8332492;28;19936;-44
2022/10/28 01:00:05;;;;;;;;;;;19.30;53.80;;;;;;8331935;28;19917;-44
2022/10/28 01:04:06;;;;;;;;;;;19.30;53.80;;;;;;8356114;28;19931;-44
2022/10/28 01:08:07;;;;;;;;;;;19.30;53.90;;;;;;8364900;28;20050;-44
2022/10/28 01:12:16;;;;;;;;;;;19.30;53.90;;;;;;8364384;28;19921;-44
2022/10/28 01:16:28;;;;;;;;;;;19.30;53.90;;;;;;8365060;28;20000;-43
2022/10/28 01:20:38;;;;;;;;;;;19.30;53.90;;;;;;8364833;28;20301;-44
2022/10/28 01:25:01;;;;;;;;;;;19.30;53.90;;;;;;8364401;28;19913;-43
2022/10/28 01:29:17;;;;;;;;;;;19.30;53.90;;;;;;8364825;28;19951;-43
2022/10/28 01:33:25;;;;;;;;;;;19.30;53.90;;;;;;8363822;28;19921;-43
2022/10/28 01:37:31;;;;;;;;;;;19.30;53.90;;;;;;8364145;28;19924;-44
2022/10/28 01:41:47;;;;;;;;;;;19.30;53.90;;;;;;8364032;28;19916;-44
2022/10/28 01:45:54;;;;;;;;;;;19.30;53.90;;;;;;8363453;28;19916;-43
2022/10/28 01:50:07;;;;;;;;;;;19.30;53.90;;;;;;8363857;28;19916;-44
2022/10/28 01:54:09;;;;;;;;;;;19.20;53.80;;;;;;8363071;28;19917;-43
2022/10/28 01:58:11;;;;;;;;;;;19.20;53.80;;;;;;8363465;28;19925;-43
2022/10/28 02:02:13;;;;;;;;;;;19.30;53.90;;;;;;8395775;28;19921;-43
2022/10/28 02:06:15;;;;;;;;;;;19.30;53.90;;;;;;8362912;28;20413;-43
2022/10/28 02:10:18;;;;;;;;;;;19.20;53.80;;;;;;8363510;28;19948;-43
2022/10/28 02:14:34;;;;;;;;;;;19.20;53.80;;;;;;8363572;28;19920;-43
2022/10/28 02:18:37;;;;;;;;;;;19.20;53.90;;;;;;8362778;28;19925;-43
2022/10/28 02:22:44;;;;;;;;;;;19.20;53.80;;;;;;8363137;28;20289;-45
2022/10/28 02:26:52;;;;;;;;;;;19.20;53.80;;;;;;8363061;28;20374;-45
2022/10/28 02:30:56;;;;;;;;;;;19.20;53.80;;;;;;8362651;28;20392;-43
2022/10/28 02:34:58;;;;;;;;;;;19.20;53.80;;;;;;8363003;28;19920;-43
2022/10/28 02:38:59;;;;;;;;;;;19.20;53.80;;;;;;8362682;28;20008;-44
2022/10/28 02:43:02;;;;;;;;;;;19.20;53.90;;;;;;8362924;28;19924;-44
2022/10/28 02:47:06;;;;;;;;;;;19.20;53.80;;;;;;8362745;28;19913;-43
2022/10/28 02:51:10;;;;;;;;;;;19.20;53.80;;;;;;8362430;28;20003;-44
2022/10/28 02:55:10;;;;;;;;;;;19.10;53.70;;;;;;8363008;28;20392;-44
2022/10/28 02:59:11;;;;;;;;;;;19.20;53.80;;;;;;8362592;28;19916;-43
2022/10/28 03:03:12;;;;;;;;;;;19.20;53.80;;;;;;8362081;28;19917;-43
2022/10/28 03:07:13;;;;;;;;;;;19.10;53.70;;;;;;8365084;28;19920;-44
2022/10/28 03:11:13;;;;;;;;;;;19.20;53.80;;;;;;8368589;28;19924;-43
2022/10/28 03:15:14;;;;;;;;;;;19.10;53.70;;;;;;8368387;28;19929;-44
2022/10/28 03:19:14;;;;;;;;;;;19.10;53.60;;;;;;8368864;28;19943;-43
2022/10/28 03:23:14;;;;;;;;;;;19.10;53.70;;;;;;8368616;28;19921;-43
2022/10/28 03:27:15;;;;;;;;;;;19.10;53.70;;;;;;8367617;28;19924;-43
2022/10/28 03:31:16;;;;;;;;;;;19.10;53.70;;;;;;8368040;28;19964;-43
2022/10/28 03:35:16;;;;;;;;;;;19.10;53.70;;;;;;8368178;28;20262;-43
2022/10/28 03:39:17;;;;;;;;;;;19.10;53.70;;;;;;8367511;28;19921;-43
2022/10/28 03:43:17;;;;;;;;;;;19.10;53.70;;;;;;8367663;28;19917;-43
2022/10/28 03:47:17;;;;;;;;;;;19.10;53.60;;;;;;8367615;28;19917;-43
2022/10/28 03:51:18;;;;;;;;;;;19.10;53.70;;;;;;8367096;28;20419;-44
2022/10/28 03:55:18;;;;;;;;;;;19.10;53.60;;;;;;8367488;28;20370;-43
2022/10/28 03:59:19;;;;;;;;;;;19.10;53.60;;;;;;8367372;28;20369;-43
2022/10/28 04:03:20;;;;;;;;;;;19.10;53.60;;;;;;8366564;28;19956;-43
2022/10/28 04:07:20;;;;;;;;;;;19.10;53.60;;;;;;8366340;28;19923;-44
2022/10/28 04:11:23;;;;;;;;;;;19.10;53.50;;;;;;8366064;28;21344;-44
2022/10/28 04:15:23;;;;;;;;;;;19.10;53.60;;;;;;8366414;28;19920;-44
2022/10/28 04:19:24;;;;;;;;;;;19.10;53.60;;;;;;8366018;28;20370;-43
2022/10/28 04:23:24;;;;;;;;;;;19.10;53.60;;;;;;8366709;28;19916;-43
2022/10/28 04:27:24;;;;;;;;;;;19.10;53.60;;;;;;8366045;28;19923;-43
2022/10/28 04:31:25;;;;;;;;;;;19.00;53.60;;;;;;8366587;28;19920;-44
2022/10/28 04:35:25;;;;;;;;;;;19.10;53.60;;;;;;8366239;28;19921;-43
2022/10/28 04:39:26;;;;;;;;;;;19.10;53.60;;;;;;8365580;28;19916;-44
2022/10/28 04:43:26;;;;;;;;;;;19.00;53.50;;;;;;8365842;28;19924;-43
2022/10/28 04:47:27;;;;;;;;;;;19.00;53.50;;;;;;8365783;28;19917;-43
2022/10/28 04:51:27;;;;;;;;;;;19.10;53.60;;;;;;8365087;28;19999;-43
2022/10/28 04:55:28;;;;;;;;;;;19.10;53.60;;;;;;8365956;28;20378;-43
2022/10/28 04:59:28;;;;;;;;;;;19.10;53.60;;;;;;8365408;28;19924;-43
2022/10/28 05:03:28;;;;;;;;;;;19.00;53.60;;;;;;8364753;28;19925;-43
2022/10/28 05:07:29;;;;;;;;;;;19.10;53.60;;;;;;8365263;28;19924;-43
2022/10/28 05:11:29;;;;;;;;;;;19.00;53.60;;;;;;8365144;28;20296;-43
2022/10/28 05:15:30;;;;;;;;;;;19.10;53.60;;;;;;8364624;28;19982;-43
2022/10/28 05:19:30;;;;;;;;;;;19.00;53.50;;;;;;8364901;28;19986;-43
2022/10/28 05:23:31;;;;;;;;;;;19.00;53.50;;;;;;8364601;28;19917;-43
2022/10/28 05:27:31;;;;;;;;;;;19.00;53.50;;;;;;8364250;28;19971;-43
2022/10/28 05:31:32;;;;;;;;;;;19.00;54.00;;;;;;8363628;28;19952;-43
2022/10/28 05:35:32;;;;;;;;;;;19.00;53.50;;;;;;8364395;28;19921;-43
2022/10/28 05:39:32;;;;;;;;;;;19.00;53.70;;;;;;8363867;28;20000;-44
2022/10/28 05:43:33;;;;;;;;;;;19.00;53.60;;;;;;8364052;28;19992;-43
2022/10/28 05:47:33;;;;;;;;;;;19.00;53.60;;;;;;8364136;28;19921;-43
2022/10/28 05:51:34;;;;;;;;;;;19.00;53.60;;;;;;8363494;28;19920;-44
2022/10/28 05:55:34;;;;;;;;;;;19.00;53.50;;;;;;8364007;28;19961;-44
2022/10/28 05:59:35;;;;;;;;;;;19.00;53.60;;;;;;8363872;28;19921;-45
2022/10/28 06:03:35;;;;;;;;;;;19.00;53.60;;;;;;8363149;28;19928;-44
2022/10/28 06:07:36;;;;;;;;;;;19.00;53.60;;;;;;8363884;28;19955;-45
2022/10/28 06:11:36;;;;;;;;;;;19.00;53.50;;;;;;8363545;28;19916;-44
2022/10/28 06:15:37;;;;;;;;;;;19.00;53.50;;;;;;8363293;28;20393;-44
2022/10/28 06:19:37;;;;;;;;;;;19.00;53.50;;;;;;8363383;28;19924;-44
2022/10/28 06:23:38;;;;;;;;;;;19.00;53.60;;;;;;8363368;28;19923;-44
2022/10/28 06:27:38;;;;;;;;;;;19.00;53.50;;;;;;8362749;28;19917;-43
2022/10/28 06:31:39;;;;;;;;;;;18.90;53.60;;;;;;8363416;28;19920;-43
2022/10/28 06:35:40;;;;;;;;;;;19.00;53.60;;;;;;8363112;28;19924;-43
2022/10/28 06:39:42;;;;;;;;;;;18.90;53.60;;;;;;8362630;28;19959;-44
2022/10/28 06:43:42;;;;;;;;;;;18.90;53.50;;;;;;8369619;28;20370;-43
2022/10/28 06:47:43;;;;;;;;;;;18.90;53.50;;;;;;8369752;28;19917;-43
2022/10/28 06:51:43;;;;;;;;;;;18.90;53.50;;;;;;8369239;28;19913;-43
2022/10/28 06:55:50;;;;;;;;;;;18.90;53.60;;;;;;8369189;28;19925;-43
2022/10/28 06:59:51;;;;;;;;;;;18.90;53.50;;;;;;8369336;28;19917;-43
2022/10/28 07:03:51;;;;;;;;;;;18.90;53.60;;;;;;8367584;28;19931;-43
2022/10/28 07:07:52;;;;;;;;;;;18.90;53.50;;;;;;8368967;28;19940;-43
2022/10/28 07:11:53;;;;;;;;;;;18.90;53.60;;;;;;8369000;28;19913;-43
2022/10/28 07:15:54;;;;;;;;;;;18.90;53.50;;;;;;8368178;28;19932;-42
2022/10/28 07:19:55;;;;;;;;;;;18.90;53.60;;;;;;8368489;28;19967;-42
2022/10/28 07:23:55;;;;;;;;;;;18.90;53.60;;;;;;8368053;28;19927;-44
2022/10/28 07:27:57;;;;;;;;;;;18.90;53.50;;;;;;8368319;28;19921;-43
2022/10/28 07:31:57;;;;;;;;;;;18.90;53.60;;;;;;8368673;28;19917;-45
2022/10/28 07:35:58;;;;;;;;;;;18.90;53.60;;;;;;8367786;28;19931;-43
2022/10/28 07:39:58;;;;;;;;;;;18.90;53.60;;;;;;8367798;28;19917;-44
2022/10/28 07:43:59;;;;;;;;;;;18.90;53.60;;;;;;8367820;28;19913;-44
2022/10/28 07:47:59;;;;;;;;;;;18.90;53.60;;;;;;8367473;28;20289;-45
2022/10/28 07:52:00;;;;;;;;;;;18.90;53.60;;;;;;8367096;28;19920;-43
2022/10/28 07:56:02;;;;;;;;;;;18.90;53.60;;;;;;8367576;28;19964;-42
2022/10/28 08:00:03;;;;;;;;;;;18.90;53.60;;;;;;8367036;28;20378;-43
2022/10/28 08:04:04;;;;;;;;;;;18.90;53.60;;;;;;8366891;28;19921;-44
2022/10/28 08:08:04;;;;;;;;;;;18.90;53.60;;;;;;8367173;28;20015;-43
2022/10/28 08:12:05;;;;;;;;;;;18.90;53.60;;;;;;8366797;28;19982;-43
2022/10/28 08:16:07;;;;;;;;;;;19.00;53.60;;;;;;8366804;28;20304;-43
2022/10/28 08:20:07;;;;;;;;;;;18.90;53.60;;;;;;8366914;28;19970;-43
2022/10/28 08:24:08;;;;;;;;;;;18.90;53.60;;;;;;8366211;28;19925;-42
2022/10/28 08:28:08;;;;;;;;;;;19.00;53.60;;;;;;8366779;28;19921;-43
2022/10/28 08:32:08;;;;;;;;;;;19.00;53.60;;;;;;8366693;28;19913;-44
2022/10/28 08:36:10;;;;;;;;;;;19.00;53.60;;;;;;8365961;28;19924;-43
2022/10/28 08:40:11;;;;;;;;;;;19.00;53.60;;;;;;8366070;28;20286;-45
2022/10/28 08:44:14;;;;;;;;;;;19.00;53.50;;;;;;8365992;28;19917;-43
2022/10/28 08:48:17;;;;;;;;;;;19.00;53.50;;;;;;8365546;28;19917;-42
2022/10/28 08:52:18;;;;;;;;;;;19.10;53.50;;;;;;8366096;28;20385;-43
2022/10/28 08:56:24;;;;;;;;;;;19.10;53.40;;;;;;8365553;28;19925;-44
2022/10/28 09:00:26;;;;;;;;;;;19.10;53.50;;;;;;8365034;28;19917;-44
2022/10/28 09:04:27;;;;;;;;;;;19.00;53.50;;;;;;8365670;28;20316;-43
2022/10/28 09:08:29;;;;;;;;;;;19.10;53.50;;;;;;8365263;28;19917;-45
2022/10/28 09:12:43;;;;;;;;;;;19.10;53.50;;;;;;8364882;28;19913;-45
2022/10/28 09:16:47;;;;;;;;;;;19.00;53.50;;;;;;8365053;28;19970;-44
2022/10/28 09:20:51;;;;;;;;;;;19.10;53.50;;;;;;8364944;28;19917;-45
2022/10/28 09:24:56;;;;;;;;;;;19.10;53.50;;;;;;8364260;28;19924;-43
2022/10/28 09:29:03;;;;;;;;;;;19.10;53.40;;;;;;8364746;28;20270;-43
2022/10/28 09:33:07;;;;;;;;;;;19.10;53.40;;;;;;8364093;28;19913;-44
2022/10/28 09:37:18;;;;;;;;;;;19.10;53.40;;;;;;8364725;28;20012;-44
2022/10/28 09:41:20;;;;;;;;;;;19.20;53.40;;;;;;8364228;28;19917;-44
2022/10/28 09:45:24;;;;;;;;;;;19.20;53.40;;;;;;8363498;28;19917;-45
2022/10/28 09:49:27;;;;;;;;;;;19.20;53.30;;;;;;8363859;28;20353;-44
2022/10/28 09:53:35;;;;;;;;;;;19.20;53.30;;;;;;8363782;28;19916;-43
2022/10/28 09:57:35;;;;;;;;;;;19.20;53.30;;;;;;8363477;28;19927;-44
2022/10/28 10:01:37;;;;;;;;;;;19.20;53.30;;;;;;8363658;28;19927;-43
2022/10/28 10:05:39;;;;;;;;;;;19.20;53.30;;;;;;8362259;28;19924;-43
2022/10/28 10:09:39;;;;;;;;;;;19.20;53.40;;;;;;8363020;28;20334;-43
2022/10/28 10:13:41;;;;;;;;;;;19.20;53.40;;;;;;8363388;28;19917;-43
2022/10/28 10:17:43;;;;;;;;;;;19.20;53.40;;;;;;8363203;28;20406;-46
2022/10/28 10:21:46;;;;;;;;;;;19.20;53.50;;;;;;8362984;28;19917;-45
2022/10/28 10:25:52;;;;;;;;;;;19.20;53.50;;;;;;8363535;28;19916;-44
2022/10/28 10:29:54;;;;;;;;;;;19.20;53.50;;;;;;8363260;28;19921;-43
2022/10/28 10:33:55;;;;;;;;;;;19.20;53.50;;;;;;8361619;28;19970;-44
2022/10/28 10:37:57;;;;;;;;;;;19.30;53.50;;;;;;8363360;28;19925;-44
2022/10/28 10:41:58;;;;;;;;;;;19.30;53.50;;;;;;8362556;28;20007;-44
2022/10/28 10:46:00;;;;;;;;;;;19.30;53.50;;;;;;8362933;28;19917;-44
2022/10/28 10:50:21;;;;;;;;;;;19.30;53.50;;;;;;8362889;28;19917;-44
2022/10/28 10:54:21;;;;;;;;;;;19.30;53.40;;;;;;8362340;28;19943;-44
2022/10/28 10:58:23;;;;;;;;;;;19.30;53.40;;;;;;8363366;28;19921;-45
2022/10/28 11:02:24;;;;;;;;;;;19.30;53.40;;;;;;8362892;28;20457;-44
2022/10/28 11:06:38;;;;;;;;;;;19.40;53.40;;;;;;8362144;28;19928;-45
2022/10/28 11:10:39;;;;;;;;;;;19.40;53.40;;;;;;8362681;28;19923;-43
2022/10/28 11:14:52;;;;;;;;;;;19.40;53.40;;;;;;8362681;28;19959;-42
2022/10/28 11:18:52;;;;;;;;;;;19.40;53.30;;;;;;8361885;28;19925;-42
2022/10/28 11:22:59;;;;;;;;;;;19.40;53.30;;;;;;8362553;28;20289;-43
2022/10/28 11:27:02;;;;;;;;;;;19.40;53.40;;;;;;8362099;28;19917;-44
2022/10/28 11:31:32;;;;;;;;;;;19.40;53.40;;;;;;8368272;28;19921;-46
2022/10/28 11:35:56;;;;;;;;;;;19.40;53.40;;;;;;8383541;28;19944;-44
2022/10/28 11:40:09;;;;;;;;;;;19.40;53.40;;;;;;8369901;28;20336;-44
2022/10/28 11:44:19;;;;;;;;;;;19.40;53.40;;;;;;8367876;28;19936;-43
2022/10/28 11:48:33;;;;;;;;;;;19.40;53.40;;;;;;8367875;28;20012;-44
2022/10/28 11:52:53;;;;;;;;;;;19.40;53.40;;;;;;8367839;28;20400;-44
2022/10/28 11:57:12;;;;;;;;;;;19.40;53.40;;;;;;8367417;28;20293;-44
2022/10/28 12:01:22;;;;;;;;;;;19.40;53.40;;;;;;8367062;28;19920;-43
2022/10/28 12:05:24;;;;;;;;;;;19.40;53.40;;;;;;8367084;28;19920;-43
2022/10/28 12:09:36;;;;;;;;;;;19.50;53.40;;;;;;8366639;28;19956;-44
2022/10/28 12:13:43;;;;;;;;;;;19.50;53.40;;;;;;8378715;28;20388;-44
2022/10/28 12:17:51;;;;;;;;;;;19.50;53.40;;;;;;8358034;28;19925;-46
2022/10/28 12:21:57;;;;;;;;;;;19.50;53.40;;;;;;8364469;28;19924;-42
2022/10/28 12:25:59;;;;;;;;;;;19.50;53.30;;;;;;8361755;28;19987;-45
2022/10/28 12:30:07;;;;;;;;;;;19.50;53.30;;;;;;8363367;28;19920;-45
2022/10/28 12:34:10;;;;;;;;;;;19.50;53.30;;;;;;8361472;28;19956;-42
2022/10/28 12:38:21;;;;;;;;;;;19.50;53.30;;;;;;8360996;28;19925;-43
2022/10/28 12:42:24;;;;;;;;;;;19.50;53.30;;;;;;8362230;28;19917;-44
2022/10/28 12:46:30;;;;;;;;;;;19.50;53.40;;;;;;8362810;28;19917;-43
2022/10/28 12:50:51;;;;;;;;;;;19.50;53.40;;;;;;8359216;28;19963;-43
2022/10/28 12:54:52;;;;;;;;;;;19.60;53.40;;;;;;8361040;28;19917;-42
2022/10/28 12:59:10;;;;;;;;;;;19.50;53.40;;;;;;8359926;28;20034;-44
2022/10/28 13:03:11;;;;;;;;;;;19.60;53.40;;;;;;8355948;28;19923;-44
2022/10/28 13:07:29;;;;;;;;;;;19.60;53.40;;;;;;8361936;28;20275;-43
2022/10/28 13:11:40;;;;;;;;;;;19.60;53.40;;;;;;8357375;28;20320;-43
2022/10/28 13:15:40;;;;;;;;;;;19.60;53.40;;;;;;8357052;28;19925;-43
2022/10/28 13:19:59;;;;;;;;;;;19.60;53.40;;;;;;8356284;28;20302;-43
2022/10/28 13:24:00;;;;;;;;;;;19.60;53.40;;;;;;8366025;28;19924;-43
2022/10/28 13:28:01;;;;;;;;;;;19.60;53.30;;;;;;8359932;28;20350;-43
2022/10/28 13:32:01;;;;;;;;;;;19.60;53.30;;;;;;8359845;28;20140;-43
2022/10/28 13:36:10;;;;;;;;;;;19.70;53.30;;;;;;8354684;28;20039;-43
2022/10/28 13:40:21;;;;;;;;;;;19.70;53.30;;;;;;8358303;28;19917;-44
2022/10/28 13:44:23;;;;;;;;;;;19.60;53.20;;;;;;8353091;28;19963;-46
2022/10/28 13:48:27;;;;;;;;;;;19.70;53.20;;;;;;8354600;28;19924;-45
2022/10/28 13:52:27;;;;;;;;;;;19.70;53.20;;;;;;8342121;28;19987;-45
2022/10/28 13:56:28;;;;;;;;;;;19.70;53.20;;;;;;8357566;28;19933;-44
2022/10/28 14:00:28;;;;;;;;;;;19.70;53.20;;;;;;8360166;28;19921;-44
2022/10/28 14:04:30;;;;;;;;;;;19.70;53.20;;;;;;8360172;28;20011;-44
2022/10/28 14:08:33;;;;;;;;;;;19.70;53.20;;;;;;8359663;28;19982;-43
2022/10/28 14:12:39;;;;;;;;;;;19.70;53.20;;;;;;8360840;28;19923;-44
2022/10/28 14:16:42;;;;;;;;;;;19.70;53.20;;;;;;8358577;28;19924;-45
2022/10/28 14:20:57;;;;;;;;;;;19.70;53.20;;;;;;8361684;28;20357;-44
2022/10/28 14:24:58;;;;;;;;;;;19.70;53.20;;;;;;8361706;28;19913;-43
2022/10/28 14:28:58;;;;;;;;;;;19.70;53.30;;;;;;8359492;28;19923;-44
2022/10/28 14:33:01;;;;;;;;;;;19.70;53.30;;;;;;8359396;28;20011;-43
2022/10/28 14:37:09;;;;;;;;;;;19.70;53.20;;;;;;8356344;28;20385;-44
2022/10/28 14:41:16;;;;;;;;;;;19.70;53.20;;;;;;8360936;28;19940;-43
2022/10/28 14:45:27;;;;;;;;;;;19.80;53.30;;;;;;8359335;28;19917;-43
2022/10/28 14:49:32;;;;;;;;;;;19.70;53.20;;;;;;8362177;28;19960;-43
2022/10/28 14:53:34;;;;;;;;;;;19.80;53.30;;;;;;8359993;28;19920;-45
2022/10/28 14:57:34;;;;;;;;;;;19.70;53.30;;;;;;8358599;28;19975;-44
2022/10/28 15:01:55;;;;;;;;;;;19.70;53.20;;;;;;8364008;28;19917;-44
2022/10/28 15:06:00;;;;;;;;;;;19.80;53.30;;;;;;8365718;28;20054;-44
2022/10/28 15:10:12;;;;;;;;;;;19.80;53.40;;;;;;8350469;28;19916;-44
2022/10/28 15:14:23;;;;;;;;;;;19.80;53.30;;;;;;8356978;28;19917;-43
2022/10/28 15:18:24;;;;;;;;;;;19.70;53.80;;;;;;8363268;28;19932;-43
2022/10/28 15:22:27;;;;;;;;;;;19.80;53.30;;;;;;8373731;28;19925;-45
2022/10/28 15:26:27;;;;;;;;;;;19.80;53.30;;;;;;8364429;28;20258;-43
2022/10/28 15:30:28;;;;;;;;;;;19.80;53.30;;;;;;8363486;28;19917;-44
2022/10/28 15:34:29;;;;;;;;;;;19.80;53.40;;;;;;8362975;28;19917;-44
2022/10/28 15:38:38;;;;;;;;;;;19.70;53.40;;;;;;8365504;28;19979;-43
2022/10/28 15:42:44;;;;;;;;;;;19.70;53.40;;;;;;8356184;28;19917;-44
2022/10/28 15:46:47;;;;;;;;;;;19.70;53.40;;;;;;8365184;28;19917;-43
2022/10/28 15:51:07;;;;;;;;;;;19.70;53.40;;;;;;8362384;28;20274;-44
2022/10/28 15:55:34;;;;;;;;;;;19.70;53.40;;;;;;8358322;28;19927;-43
2022/10/28 15:59:34;;;;;;;;;;;19.70;53.50;;;;;;8333794;28;20440;-44
2022/10/28 16:03:38;;;;;;;;;;;19.70;53.40;;;;;;8334394;28;19921;-42
2022/10/28 16:07:43;;;;;;;;;;;19.70;53.40;;;;;;8344436;28;19929;-45
2022/10/28 16:11:46;;;;;;;;;;;19.70;53.50;;;;;;8347142;28;19917;-44
2022/10/28 16:15:50;;;;;;;;;;;19.80;53.40;;;;;;8365720;28;20441;-44
2022/10/28 16:19:54;;;;;;;;;;;19.80;53.50;;;;;;8367153;28;20277;-45
2022/10/28 16:23:55;;;;;;;;;;;19.70;53.50;;;;;;8366554;28;20270;-44
2022/10/28 16:27:55;;;;;;;;;;;19.80;53.60;;;;;;8366964;28;19921;-44
2022/10/28 16:31:56;;;;;;;;;;;19.70;53.60;;;;;;8366442;28;19920;-44
2022/10/28 16:35:56;;;;;;;;;;;19.70;53.50;;;;;;8364536;28;19932;-45
2022/10/28 16:39:57;;;;;;;;;;;19.80;53.60;;;;;;8366512;28;19919;-44
2022/10/28 16:43:57;;;;;;;;;;;19.70;53.60;;;;;;8366234;28;20443;-45
2022/10/28 16:47:58;;;;;;;;;;;19.70;53.60;;;;;;8365548;28;19916;-43
2022/10/28 16:52:01;;;;;;;;;;;19.70;53.60;;;;;;8365792;28;20350;-43
2022/10/28 16:56:02;;;;;;;;;;;19.70;53.60;;;;;;8365786;28;19925;-44
2022/10/28 17:00:02;;;;;;;;;;;19.70;53.60;;;;;;8365315;28;19913;-44
2022/10/28 17:04:03;;;;;;;;;;;19.70;53.70;;;;;;8365306;28;19920;-45
2022/10/28 17:08:04;;;;;;;;;;;19.70;53.60;;;;;;8365539;28;19921;-44
2022/10/28 17:12:04;;;;;;;;;;;19.70;53.70;;;;;;8364634;28;19916;-46
2022/10/28 17:16:05;;;;;;;;;;;19.70;53.70;;;;;;8365352;28;20242;-44
2022/10/28 17:20:06;;;;;;;;;;;19.70;53.60;;;;;;8365401;28;19913;-44
2022/10/28 17:24:06;;;;;;;;;;;19.70;53.60;;;;;;8363942;28;20313;-43
2022/10/28 17:28:06;;;;;;;;;;;19.70;53.70;;;;;;8364251;28;19921;-44
2022/10/28 17:32:07;;;;;;;;;;;19.70;53.70;;;;;;8364540;28;20374;-44
2022/10/28 17:36:08;;;;;;;;;;;19.70;53.70;;;;;;8364064;28;20028;-42
2022/10/28 17:40:09;;;;;;;;;;;19.70;53.70;;;;;;8364538;28;19917;-43
2022/10/28 17:44:10;;;;;;;;;;;19.70;53.70;;;;;;8364370;28;20354;-44
2022/10/28 17:48:10;;;;;;;;;;;19.70;53.80;;;;;;8363868;28;19924;-45
2022/10/28 17:52:11;;;;;;;;;;;19.70;53.70;;;;;;8364316;28;19917;-44
2022/10/28 17:56:11;;;;;;;;;;;19.70;53.80;;;;;;8364228;28;19974;-43
2022/10/28 18:00:12;;;;;;;;;;;19.70;53.80;;;;;;8363325;28;19917;-44
2022/10/28 18:04:12;;;;;;;;;;;19.70;53.90;;;;;;8363486;28;19956;-44
2022/10/28 18:08:13;;;;;;;;;;;19.70;53.90;;;;;;8363928;28;19999;-44
2022/10/28 18:12:13;;;;;;;;;;;19.70;53.90;;;;;;8363193;28;19917;-45
2022/10/28 18:16:15;;;;;;;;;;;19.70;53.80;;;;;;8363607;28;20019;-44
2022/10/28 18:20:16;;;;;;;;;;;19.70;53.80;;;;;;8363349;28;19920;-44
2022/10/28 18:24:16;;;;;;;;;;;19.70;53.80;;;;;;8363082;28;20446;-44
2022/10/28 18:28:21;;;;;;;;;;;19.70;53.80;;;;;;8363168;28;20030;-43
2022/10/28 18:32:22;;;;;;;;;;;19.70;53.80;;;;;;8363072;28;19917;-43
2022/10/28 18:36:23;;;;;;;;;;;19.70;53.80;;;;;;8363794;28;19983;-44
2022/10/28 18:40:23;;;;;;;;;;;19.70;53.80;;;;;;8369800;28;19917;-44
2022/10/28 18:44:30;;;;;;;;;;;19.70;53.80;;;;;;8369786;28;20344;-44
2022/10/28 18:48:31;;;;;;;;;;;19.70;53.80;;;;;;8369309;28;20275;-43
2022/10/28 18:52:31;;;;;;;;;;;19.70;53.80;;;;;;8369816;28;19999;-44
2022/10/28 18:56:32;;;;;;;;;;;19.70;53.90;;;;;;8369572;28;19920;-44
2022/10/28 19:00:34;;;;;;;;;;;19.70;53.90;;;;;;8368802;28;20385;-45
2022/10/28 19:04:35;;;;;;;;;;;19.70;53.90;;;;;;8345378;28;19921;-45
2022/10/28 19:08:36;;;;;;;;;;;19.70;53.90;;;;;;8351423;28;20330;-44
2022/10/28 19:12:36;;;;;;;;;;;19.70;53.90;;;;;;8368572;28;20315;-44
2022/10/28 19:16:37;;;;;;;;;;;19.70;53.90;;;;;;8369015;28;19935;-44
2022/10/28 19:20:37;;;;;;;;;;;19.70;53.90;;;;;;8368832;28;19927;-44
2022/10/28 19:24:37;;;;;;;;;;;19.70;53.90;;;;;;8368229;28;19917;-44
2022/10/28 19:28:39;;;;;;;;;;;19.70;53.80;;;;;;8368415;28;19924;-43
2022/10/28 19:32:39;;;;;;;;;;;19.70;53.80;;;;;;8368387;28;19970;-44
2022/10/28 19:36:40;;;;;;;;;;;19.70;53.80;;;;;;8367980;28;19987;-44
2022/10/28 19:40:40;;;;;;;;;;;19.70;53.80;;;;;;8368168;28;20007;-45
2022/10/28 19:44:40;;;;;;;;;;;19.70;53.80;;;;;;8368213;28;20286;-44
2022/10/28 19:48:42;;;;;;;;;;;19.70;53.80;;;;;;8366193;28;20416;-44
2022/10/28 19:52:42;;;;;;;;;;;19.70;53.90;;;;;;8367899;28;19974;-45
2022/10/28 19:56:44;;;;;;;;;;;19.70;53.90;;;;;;8367761;28;19979;-45
2022/10/28 20:00:44;;;;;;;;;;;19.60;53.80;;;;;;8367063;28;20294;-44
2022/10/28 20:04:47;;;;;;;;;;;19.70;53.90;;;;;;8367971;28;19928;-44
2022/10/28 20:08:48;;;;;;;;;;;19.70;53.90;;;;;;8367163;28;19917;-44
2022/10/28 20:12:48;;;;;;;;;;;19.70;53.90;;;;;;8366575;28;19921;-44
2022/10/28 20:16:49;;;;;;;;;;;19.60;53.80;;;;;;8367159;28;19932;-43
2022/10/28 20:20:49;;;;;;;;;;;19.70;53.90;;;;;;8366997;28;19921;-43
2022/10/28 20:24:50;;;;;;;;;;;19.60;53.80;;;;;;8366366;28;20474;-44
2022/10/28 20:28:51;;;;;;;;;;;19.70;53.80;;;;;;8398887;28;20000;-44
2022/10/28 20:32:51;;;;;;;;;;;19.70;53.90;;;;;;8366447;28;19917;-43
2022/10/28 20:36:51;;;;;;;;;;;19.70;53.80;;;;;;8366052;28;19925;-44
2022/10/28 20:40:53;;;;;;;;;;;19.70;53.80;;;;;;8366305;28;20022;-44
2022/10/28 20:44:54;;;;;;;;;;;19.70;53.80;;;;;;8366253;28;20332;-45
2022/10/28 20:48:55;;;;;;;;;;;19.70;53.80;;;;;;8365400;28;19924;-44
2022/10/28 20:52:55;;;;;;;;;;;19.60;53.80;;;;;;8366102;28;19963;-45
2022/10/28 20:56:56;;;;;;;;;;;19.60;53.90;;;;;;8397677;28;19932;-45
2022/10/28 21:01:04;;;;;;;;;;;19.60;53.80;;;;;;8365578;28;20008;-42
2022/10/28 21:05:05;;;;;;;;;;;19.60;53.90;;;;;;8363913;28;19921;-44
2022/10/28 21:09:05;;;;;;;;;;;19.60;53.80;;;;;;8364943;28;19964;-44
2022/10/28 21:13:06;;;;;;;;;;;19.60;53.90;;;;;;8365204;28;20394;-43
2022/10/28 21:17:07;;;;;;;;;;;19.60;53.80;;;;;;8365462;28;19929;-43
2022/10/28 21:21:07;;;;;;;;;;;19.60;53.80;;;;;;8364374;28;19970;-44
2022/10/28 21:25:08;;;;;;;;;;;19.60;53.80;;;;;;8365089;28;19996;-43
2022/10/28 21:29:08;;;;;;;;;;;19.60;53.80;;;;;;8364607;28;19921;-43
2022/10/28 21:33:10;;;;;;;;;;;19.60;53.70;;;;;;8364122;28;19967;-44
2022/10/28 21:37:10;;;;;;;;;;;19.70;53.80;;;;;;8364899;28;19928;-44
2022/10/28 21:41:15;;;;;;;;;;;19.60;53.70;;;;;;8364206;28;19977;-43
2022/10/28 21:45:16;;;;;;;;;;;19.60;53.80;;;;;;8363765;28;19928;-44
2022/10/28 21:49:17;;;;;;;;;;;19.60;53.70;;;;;;8364313;28;19920;-45
2022/10/28 21:53:17;;;;;;;;;;;19.60;53.70;;;;;;8364073;28;19952;-43
2022/10/28 21:57:18;;;;;;;;;;;19.60;53.70;;;;;;8362508;28;19925;-44
2022/10/28 22:01:20;;;;;;;;;;;19.60;53.70;;;;;;8363303;28;20392;-43
2022/10/28 22:05:20;;;;;;;;;;;19.70;53.70;;;;;;8362509;28;19921;-44
2022/10/28 22:09:21;;;;;;;;;;;19.60;53.70;;;;;;8363575;28;20380;-45
2022/10/28 22:13:21;;;;;;;;;;;19.60;53.70;;;;;;8362906;28;19916;-44
2022/10/28 22:17:21;;;;;;;;;;;19.60;53.70;;;;;;8363782;28;20016;-44
2022/10/28 22:21:23;;;;;;;;;;;19.60;53.70;;;;;;8363039;28;19920;-44
2022/10/28 22:25:23;;;;;;;;;;;19.60;53.70;;;;;;8363243;28;20437;-42
2022/10/28 22:29:24;;;;;;;;;;;19.60;53.70;;;;;;8363410;28;19924;-43
2022/10/28 22:33:24;;;;;;;;;;;19.60;53.70;;;;;;8362792;28;19944;-45
2022/10/28 22:37:25;;;;;;;;;;;19.60;53.80;;;;;;8363521;28;19928;-44
2022/10/28 22:41:27;;;;;;;;;;;19.60;53.70;;;;;;8363199;28;19920;-43
2022/10/28 22:45:27;;;;;;;;;;;19.60;53.70;;;;;;8362498;28;19923;-44
2022/10/28 22:49:28;;;;;;;;;;;19.60;53.70;;;;;;8363216;28;19916;-44
2022/10/28 22:53:28;;;;;;;;;;;19.60;53.70;;;;;;8395181;28;20397;-43
2022/10/28 22:57:29;;;;;;;;;;;19.60;53.80;;;;;;8362653;28;19921;-44
2022/10/28 23:01:29;;;;;;;;;;;19.60;53.80;;;;;;8362980;28;19917;-44
2022/10/28 23:05:29;;;;;;;;;;;19.60;53.70;;;;;;8362530;28;20066;-44
2022/10/28 23:09:30;;;;;;;;;;;19.60;53.70;;;;;;8362148;28;19940;-43
2022/10/28 23:13:30;;;;;;;;;;;19.60;53.80;;;;;;8362568;28;20282;-43
2022/10/28 23:17:31;;;;;;;;;;;19.60;53.80;;;;;;8362660;28;19921;-44
2022/10/28 23:21:31;;;;;;;;;;;19.60;53.80;;;;;;8361998;28;20332;-43
2022/10/28 23:25:32;;;;;;;;;;;19.60;53.80;;;;;;8368157;28;20405;-42
2022/10/28 23:29:32;;;;;;;;;;;19.50;53.70;;;;;;8368388;28;19917;-44
2022/10/28 23:33:33;;;;;;;;;;;19.60;53.80;;;;;;8367925;28;19919;-43